Time;durP1;ratioP1;P1;durP2;ratioP2;P2;SDS_P1;SDS_P2;PMS_P1;PMS_P2;Temp;Humidity;BMP_temperature;BMP_pressure;BME280_temperature;BME280_humidity;BME280_pressure;Samples;Min_cycle;Max_cycle;Signal;HPM_P1;HPM_P2
2021/08/20 00:00:25;;;;;;;9.60;5.05;;;15.80;86.60;;;;;;5074923;28;20031;-47
2021/08/20 00:02:51;;;;;;;7.32;5.28;;;15.80;87.10;;;;;;5074938;28;20028;-46
2021/08/20 00:05:17;;;;;;;8.10;5.90;;;15.80;87.00;;;;;;5074619;28;20020;-51
2021/08/20 00:07:42;;;;;;;9.10;4.97;;;15.80;87.30;;;;;;5074848;28;20035;-47
2021/08/20 00:10:09;;;;;;;5.95;4.93;;;15.80;87.70;;;;;;5074754;28;20021;-49
2021/08/20 00:12:35;;;;;;;9.73;5.25;;;15.90;87.60;;;;;;5074670;28;20047;-50
2021/08/20 00:15:00;;;;;;;13.02;5.90;;;15.90;87.70;;;;;;5074388;28;20029;-46
2021/08/20 00:17:27;;;;;;;8.15;4.88;;;15.80;87.60;;;;;;5074320;28;20091;-47
2021/08/20 00:19:53;;;;;;;7.35;4.75;;;15.90;87.30;;;;;;5074128;28;20032;-49
2021/08/20 00:22:19;;;;;;;9.45;5.45;;;15.80;87.20;;;;;;5074196;28;20045;-48
2021/08/20 00:24:45;;;;;;;10.98;5.97;;;15.80;87.20;;;;;;5074369;28;20035;-47
2021/08/20 00:27:10;;;;;;;7.13;5.00;;;15.80;87.50;;;;;;5074133;28;20487;-47
2021/08/20 00:29:37;;;;;;;9.20;5.30;;;15.70;87.60;;;;;;5074159;28;20082;-46
2021/08/20 00:32:03;;;;;;;19.73;5.55;;;15.60;88.10;;;;;;5074368;28;20108;-48
2021/08/20 00:34:29;;;;;;;8.82;5.03;;;15.80;87.50;;;;;;5074016;28;20389;-50
2021/08/20 00:36:55;;;;;;;6.68;4.80;;;15.70;87.50;;;;;;5073929;28;20043;-49
2021/08/20 00:39:21;;;;;;;7.85;4.60;;;15.70;87.60;;;;;;5073869;28;20039;-46
2021/08/20 00:41:47;;;;;;;10.75;4.88;;;15.60;88.00;;;;;;5073873;28;20515;-46
2021/08/20 00:44:13;;;;;;;11.98;5.65;;;15.50;88.30;;;;;;5073107;28;20154;-48
2021/08/20 00:46:39;;;;;;;9.73;5.20;;;15.50;88.60;;;;;;5073634;28;20103;-48
2021/08/20 00:49:05;;;;;;;7.75;5.65;;;15.50;88.80;;;;;;5073865;28;20017;-49
2021/08/20 00:51:36;;;;;;;10.70;6.03;;;15.70;88.00;;;;;;5073927;28;20349;-47
2021/08/20 00:54:02;;;;;;;;;;;15.80;86.80;;;;;;5074161;28;20017;-49
2021/08/20 00:56:28;;;;;;;8.73;5.80;;;15.80;87.00;;;;;;5073495;28;19908;-50
2021/08/20 00:58:55;;;;;;;9.32;5.32;;;15.90;87.10;;;;;;5073498;28;20036;-47
2021/08/20 01:01:20;;;;;;;11.45;5.97;;;15.80;86.70;;;;;;5073300;28;20119;-47
2021/08/20 01:03:46;;;;;;;12.20;5.53;;;15.80;87.00;;;;;;5073122;28;20111;-46
2021/08/20 01:06:12;;;;;;;8.95;6.07;;;15.80;87.40;;;;;;5072982;28;20112;-46
2021/08/20 01:08:38;;;;;;;9.25;6.75;;;15.80;87.10;;;;;;5072991;28;20535;-47
2021/08/20 01:11:10;;;;;;;12.10;7.35;;;15.80;87.60;;;;;;5072987;28;20111;-47
2021/08/20 01:13:41;;;;;;;10.35;6.03;;;15.90;86.80;;;;;;5073197;28;20016;-46
2021/08/20 01:16:07;;;;;;;8.77;6.03;;;15.90;87.20;;;;;;5073236;28;20035;-48
2021/08/20 01:18:38;;;;;;;10.05;5.97;;;15.80;87.50;;;;;;5072761;28;20036;-50
2021/08/20 01:21:07;;;;;;;12.23;7.25;;;15.80;87.80;;;;;;5071726;28;20067;-49
2021/08/20 01:23:34;;;;;;;12.45;5.97;;;15.80;87.70;;;;;;5072594;28;20131;-48
2021/08/20 01:26:00;;;;;;;8.43;6.25;;;15.80;87.20;;;;;;5072596;28;20048;-48
2021/08/20 01:28:26;;;;;;;10.32;6.65;;;15.80;87.70;;;;;;5072740;28;20496;-46
2021/08/20 01:31:02;;;;;;;13.80;6.95;;;15.80;88.00;;;;;;5072959;28;20107;-51
2021/08/20 01:33:28;;;;;;;8.15;6.15;;;15.80;88.20;;;;;;5072732;28;20020;-47
2021/08/20 01:35:54;;;;;;;8.07;6.72;;;15.60;88.50;;;;;;5072680;28;20032;-47
2021/08/20 01:38:20;;;;;;;11.80;6.65;;;15.60;88.90;;;;;;5073129;28;20058;-48
2021/08/20 01:40:45;;;;;;;10.27;6.63;;;15.60;89.20;;;;;;5072783;28;20057;-50
2021/08/20 01:43:11;;;;;;;9.85;7.07;;;15.60;89.20;;;;;;5072768;28;20036;-48
2021/08/20 01:45:37;;;;;;;10.10;7.22;;;15.70;88.90;;;;;;5072650;28;20085;-47
2021/08/20 01:48:03;;;;;;;10.05;7.05;;;15.60;89.20;;;;;;5071837;28;20488;-46
2021/08/20 01:50:30;;;;;;;10.15;7.15;;;15.80;88.90;;;;;;5073074;28;20044;-46
2021/08/20 01:52:55;;;;;;;11.45;7.25;;;15.70;88.70;;;;;;5071388;28;20052;-46
2021/08/20 01:55:21;;;;;;;15.07;8.63;;;15.80;88.80;;;;;;5071833;28;20056;-46
2021/08/20 01:57:46;;;;;;;13.98;7.35;;;15.60;89.10;;;;;;5072435;28;20029;-48
2021/08/20 02:00:13;;;;;;;12.25;7.47;;;15.60;89.40;;;;;;5072801;28;20487;-47
2021/08/20 02:02:39;;;;;;;13.77;8.70;;;15.60;89.30;;;;;;5072432;28;20035;-45
2021/08/20 02:05:05;;;;;;;15.68;8.52;;;15.70;89.50;;;;;;5071403;28;20020;-46
2021/08/20 02:07:35;;;;;;;15.15;7.88;;;15.70;89.50;;;;;;5072490;28;20551;-46
2021/08/20 02:10:05;;;;;;;16.45;8.25;;;15.70;89.20;;;;;;5072544;28;20035;-47
2021/08/20 02:12:30;;;;;;;12.50;8.05;;;15.70;89.50;;;;;;5071073;28;20526;-47
2021/08/20 02:14:56;;;;;;;11.57;8.45;;;15.80;89.00;;;;;;5072521;28;20028;-46
2021/08/20 02:17:21;;;;;;;13.48;9.18;;;15.80;89.00;;;;;;5071195;28;20464;-47
2021/08/20 02:19:47;;;;;;;15.65;9.13;;;15.80;88.90;;;;;;5072323;28;20029;-46
2021/08/20 02:22:13;;;;;;;15.82;8.82;;;15.80;88.80;;;;;;5072399;28;20516;-48
2021/08/20 02:24:38;;;;;;;15.85;9.45;;;15.90;88.80;;;;;;5071071;28;20032;-50
2021/08/20 02:27:04;;;;;;;14.30;9.63;;;15.80;88.90;;;;;;5072229;28;20039;-46
2021/08/20 02:29:29;;;;;;;15.75;9.10;;;15.70;89.20;;;;;;5072302;28;20027;-48
2021/08/20 02:31:55;;;;;;;12.73;9.50;;;15.70;89.60;;;;;;5072501;28;20024;-49
2021/08/20 02:34:21;;;;;;;11.63;8.57;;;15.70;89.70;;;;;;5070956;28;20021;-49
2021/08/20 02:36:46;;;;;;;15.02;9.80;;;15.70;89.70;;;;;;5072258;28;20028;-46
2021/08/20 02:39:12;;;;;;;18.65;10.35;;;15.70;89.50;;;;;;5072461;28;20078;-47
2021/08/20 02:41:37;;;;;;;16.95;10.32;;;15.80;89.40;;;;;;5072402;28;20464;-48
2021/08/20 02:44:03;;;;;;;20.45;11.65;;;15.70;89.50;;;;;;5072211;28;20028;-51
2021/08/20 02:46:29;;;;;;;17.58;10.45;;;15.80;89.50;;;;;;5072043;28;20085;-48
2021/08/20 02:48:55;;;;;;;13.30;9.85;;;15.70;89.50;;;;;;5072153;28;20035;-46
2021/08/20 02:51:20;;;;;;;14.65;11.40;;;15.70;89.50;;;;;;5072352;28;20032;-48
2021/08/20 02:53:46;;;;;;;17.05;10.90;;;15.70;89.50;;;;;;5072068;28;20497;-48
2021/08/20 02:56:12;;;;;;;16.52;11.65;;;15.70;89.40;;;;;;5072343;28;20028;-47
2021/08/20 02:58:37;;;;;;;16.92;10.82;;;15.60;89.70;;;;;;5072030;28;20020;-46
2021/08/20 03:01:03;;;;;;;15.57;10.48;;;15.70;89.60;;;;;;5072225;28;20024;-46
2021/08/20 03:03:29;;;;;;;17.05;10.77;;;15.60;89.80;;;;;;5072643;28;20024;-45
2021/08/20 03:05:54;;;;;;;18.35;11.30;;;15.60;89.70;;;;;;5071879;28;20036;-46
2021/08/20 03:08:20;;;;;;;15.52;11.27;;;15.60;89.60;;;;;;5074784;28;20050;-48
2021/08/20 03:10:45;;;;;;;22.33;11.50;;;15.50;89.70;;;;;;5074633;28;20108;-47
2021/08/20 03:13:11;;;;;;;18.88;12.70;;;15.60;89.60;;;;;;5075543;28;20103;-47
2021/08/20 03:15:37;;;;;;;15.63;11.63;;;15.60;89.80;;;;;;5075775;28;20029;-46
2021/08/20 03:18:02;;;;;;;17.95;12.20;;;15.60;89.50;;;;;;5075405;28;20393;-45
2021/08/20 03:20:28;;;;;;;21.40;11.80;;;15.70;89.40;;;;;;5075533;28;20048;-46
2021/08/20 03:22:54;;;;;;;16.15;10.80;;;15.60;89.30;;;;;;5075253;28;20041;-46
2021/08/20 03:25:20;;;;;;;23.27;12.88;;;15.50;89.80;;;;;;5075600;28;20029;-48
2021/08/20 03:27:45;;;;;;;21.80;12.75;;;15.50;89.90;;;;;;5075522;28;20020;-47
2021/08/20 03:30:11;;;;;;;28.00;13.30;;;15.50;89.90;;;;;;5075397;28;20024;-47
2021/08/20 03:32:37;;;;;;;20.45;13.27;;;15.50;89.70;;;;;;5075453;28;20054;-47
2021/08/20 03:35:04;;;;;;;27.23;12.68;;;15.50;89.50;;;;;;5075408;28;20520;-46
2021/08/20 03:37:29;;;;;;;23.40;13.23;;;15.50;89.60;;;;;;5075081;28;20056;-47
2021/08/20 03:39:55;;;;;;;19.70;14.55;;;15.40;89.70;;;;;;5075053;28;20058;-47
2021/08/20 03:42:20;;;;;;;20.15;12.65;;;15.40;89.90;;;;;;5075011;28;20481;-46
2021/08/20 03:44:46;;;;;;;20.63;13.48;;;15.30;90.20;;;;;;5074981;28;20025;-50
2021/08/20 03:47:12;;;;;;;25.40;16.30;;;15.40;90.10;;;;;;5075317;28;20036;-46
2021/08/20 03:49:37;;;;;;;25.13;15.30;;;15.30;90.10;;;;;;5075274;28;20020;-48
2021/08/20 03:52:03;;;;;;;23.80;12.90;;;15.30;90.20;;;;;;5074800;28;20048;-46
2021/08/20 03:54:29;;;;;;;20.27;12.90;;;15.20;90.50;;;;;;5074786;28;20032;-47
2021/08/20 03:56:55;;;;;;;23.80;14.07;;;15.20;90.60;;;;;;5074526;28;20372;-45
2021/08/20 03:59:20;;;;;;;25.75;16.45;;;15.20;90.60;;;;;;5074495;28;20082;-47
2021/08/20 04:01:46;;;;;;;25.05;15.65;;;15.30;90.30;;;;;;5074375;28;20032;-45
2021/08/20 04:04:11;;;;;;;24.75;16.20;;;15.30;90.00;;;;;;5075030;28;20407;-47
2021/08/20 04:06:39;;;;;;;23.20;14.45;;;15.30;90.00;;;;;;5074320;28;20128;-47
2021/08/20 04:09:04;;;;;;;23.42;14.82;;;15.20;90.20;;;;;;5074461;28;20021;-47
2021/08/20 04:11:30;;;;;;;25.10;17.50;;;15.10;90.40;;;;;;5074153;28;20451;-45
2021/08/20 04:13:56;;;;;;;27.25;15.88;;;15.20;90.60;;;;;;5074186;28;20020;-47
2021/08/20 04:16:22;;;;;;;24.08;15.88;;;15.10;90.50;;;;;;5074307;28;20033;-45
2021/08/20 04:18:47;;;;;;;36.25;18.33;;;15.20;90.60;;;;;;5073118;28;20105;-46
2021/08/20 04:21:13;;;;;;;27.75;17.25;;;15.00;90.60;;;;;;5074206;28;20047;-46
2021/08/20 04:23:39;;;;;;;28.30;17.88;;;15.00;91.10;;;;;;5074259;28;20041;-46
2021/08/20 04:26:05;;;;;;;26.25;16.45;;;15.00;91.00;;;;;;5074118;28;20059;-48
2021/08/20 04:28:30;;;;;;;34.70;19.98;;;15.00;91.00;;;;;;5074207;28;20067;-46
2021/08/20 04:30:56;;;;;;;29.80;18.45;;;14.90;91.00;;;;;;5073958;28;20027;-46
2021/08/20 04:33:22;;;;;;;31.75;19.55;;;14.90;91.20;;;;;;5074210;28;20028;-46
2021/08/20 04:35:48;;;;;;;34.78;20.02;;;14.80;91.30;;;;;;5074214;28;20063;-48
2021/08/20 04:38:14;;;;;;;30.77;20.10;;;14.90;91.10;;;;;;5074012;28;20029;-46
2021/08/20 04:40:40;;;;;;;36.35;21.45;;;14.90;91.40;;;;;;5073858;28;20525;-46
2021/08/20 04:43:05;;;;;;;33.70;18.92;;;14.80;91.20;;;;;;5073810;28;20024;-50
2021/08/20 04:45:31;;;;;;;30.77;18.45;;;14.80;91.20;;;;;;5073577;28;20029;-47
2021/08/20 04:47:57;;;;;;;32.13;18.52;;;14.70;91.50;;;;;;5074023;28;20052;-46
2021/08/20 04:50:25;;;;;;;25.30;16.90;;;14.70;91.60;;;;;;5073770;28;20056;-46
2021/08/20 04:52:51;;;;;;;33.45;19.98;;;14.60;91.80;;;;;;5074032;28;20024;-47
2021/08/20 04:55:16;;;;;;;33.67;19.13;;;14.60;91.80;;;;;;5073745;28;20465;-46
2021/08/20 04:57:42;;;;;;;40.33;19.23;;;14.60;91.80;;;;;;5073869;28;20036;-47
2021/08/20 05:00:08;;;;;;;31.38;20.13;;;14.70;91.80;;;;;;5073678;28;20036;-46
2021/08/20 05:02:36;;;;;;;34.05;21.17;;;14.70;91.70;;;;;;5073343;28;20113;-46
2021/08/20 05:05:04;;;;;;;39.95;23.42;;;14.80;91.50;;;;;;5073708;28;20020;-47
2021/08/20 05:07:29;;;;;;;38.17;18.88;;;14.80;91.50;;;;;;5073793;28;20048;-47
2021/08/20 05:09:55;;;;;;;29.83;20.20;;;14.80;91.10;;;;;;5073360;28;20016;-47
2021/08/20 05:12:21;;;;;;;38.78;20.83;;;14.90;91.10;;;;;;5072645;28;20032;-48
2021/08/20 05:14:46;;;;;;;34.08;18.25;;;14.90;90.90;;;;;;5074075;28;20021;-46
2021/08/20 05:17:12;;;;;;;30.40;18.15;;;15.00;91.10;;;;;;5073730;28;20031;-47
2021/08/20 05:19:38;;;;;;;27.52;17.10;;;15.00;90.80;;;;;;5073383;28;20067;-47
2021/08/20 05:22:03;;;;;;;25.33;16.90;;;15.10;90.80;;;;;;5073419;28;20025;-46
2021/08/20 05:24:29;;;;;;;28.55;17.00;;;15.20;90.40;;;;;;5073534;28;20491;-46
2021/08/20 05:26:55;;;;;;;28.10;18.38;;;15.20;90.00;;;;;;5071715;28;20036;-46
2021/08/20 05:29:20;;;;;;;25.20;16.45;;;15.30;89.70;;;;;;5073145;28;20028;-48
2021/08/20 05:31:46;;;;;;;28.70;17.92;;;15.30;89.70;;;;;;5072815;28;20074;-51
2021/08/20 05:34:11;;;;;;;27.02;17.38;;;15.30;89.90;;;;;;5072765;28;20074;-49
2021/08/20 05:36:37;;;;;;;26.73;18.05;;;15.40;89.40;;;;;;5071363;28;20130;-49
2021/08/20 05:39:03;;;;;;;26.60;18.35;;;15.50;88.80;;;;;;5072907;28;20032;-46
2021/08/20 05:41:28;;;;;;;27.95;17.58;;;15.60;88.80;;;;;;5072903;28;20029;-47
2021/08/20 05:43:54;;;;;;;23.50;16.20;;;15.70;88.30;;;;;;5071677;28;20032;-47
2021/08/20 05:46:20;;;;;;;28.58;17.85;;;15.60;88.60;;;;;;5073061;28;20131;-45
2021/08/20 05:48:45;;;;;;;25.65;17.45;;;15.60;89.00;;;;;;5071315;28;20031;-45
2021/08/20 05:51:11;;;;;;;26.20;16.45;;;15.60;89.00;;;;;;5072667;28;20020;-46
2021/08/20 05:53:36;;;;;;;26.20;16.85;;;15.70;88.60;;;;;;5072958;28;20024;-45
2021/08/20 05:56:02;;;;;;;23.80;16.05;;;15.90;87.60;;;;;;5072588;28;20039;-45
2021/08/20 05:58:28;;;;;;;22.60;15.98;;;16.00;87.30;;;;;;5073933;28;20039;-46
2021/08/20 06:00:53;;;;;;;21.25;14.60;;;15.80;87.80;;;;;;5072385;28;20434;-48
2021/08/20 06:03:22;;;;;;;27.73;15.82;;;15.80;88.60;;;;;;5072604;28;20051;-51
2021/08/20 06:05:49;;;;;;;31.05;18.10;;;16.20;87.30;;;;;;5072353;28;20064;-49
2021/08/20 06:08:15;;;;;;;21.52;13.80;;;16.40;86.00;;;;;;5072192;28;20024;-45
2021/08/20 06:10:44;;;;;;;22.83;13.57;;;16.20;86.00;;;;;;5072004;28;20499;-48
2021/08/20 06:13:16;;;;;;;21.75;13.30;;;16.00;87.00;;;;;;5070734;28;20388;-48
2021/08/20 06:15:42;;;;;;;26.45;13.48;;;16.20;86.80;;;;;;5072372;28;20322;-45
2021/08/20 06:18:08;;;;;;;23.75;15.77;;;16.10;86.80;;;;;;5072506;28;20025;-45
2021/08/20 06:20:33;;;;;;;19.40;14.07;;;16.00;87.00;;;;;;5072022;28;20033;-46
2021/08/20 06:22:59;;;;;;;24.00;14.70;;;16.10;86.90;;;;;;5072055;28;20086;-46
2021/08/20 06:25:25;;;;;;;25.45;15.07;;;16.20;86.50;;;;;;5070743;28;20032;-46
2021/08/20 06:27:50;;;;;;;23.27;14.48;;;16.10;87.00;;;;;;5072187;28;20024;-47
2021/08/20 06:30:16;;;;;;;26.58;16.40;;;16.30;86.30;;;;;;5072144;28;20025;-47
2021/08/20 06:32:42;;;;;;;28.35;15.18;;;16.30;85.80;;;;;;5072409;28;20031;-47
2021/08/20 06:35:08;;;;;;;28.55;16.60;;;16.20;86.60;;;;;;5071829;28;20104;-47
2021/08/20 06:37:33;;;;;;;25.38;15.85;;;16.20;86.70;;;;;;5071675;28;20024;-49
2021/08/20 06:39:59;;;;;;;29.08;15.88;;;16.30;86.90;;;;;;5072071;28;20028;-48
2021/08/20 06:42:25;;;;;;;33.65;17.63;;;16.20;86.90;;;;;;5073539;28;20017;-47
2021/08/20 06:44:50;;;;;;;31.02;16.30;;;16.20;87.30;;;;;;5075877;28;20020;-49
2021/08/20 06:47:16;;;;;;;25.70;14.98;;;16.20;87.20;;;;;;5075868;28;20074;-46
2021/08/20 06:49:42;;;;;;;30.58;16.80;;;16.10;87.50;;;;;;5075858;28;20096;-48
2021/08/20 06:52:09;;;;;;;36.53;17.85;;;16.20;87.80;;;;;;5075812;28;20379;-46
2021/08/20 06:54:34;;;;;;;28.70;16.73;;;16.20;87.40;;;;;;5075789;28;20059;-49
2021/08/20 06:57:00;;;;;;;36.17;17.40;;;16.30;87.50;;;;;;5076157;28;20464;-47
2021/08/20 06:59:26;;;;;;;29.90;15.30;;;16.50;86.10;;;;;;5076226;28;20029;-50
2021/08/20 07:01:51;;;;;;;29.35;16.73;;;16.40;86.70;;;;;;5076550;28;20107;-48
2021/08/20 07:04:17;;;;;;;27.17;16.67;;;16.30;87.30;;;;;;5076274;28;20114;-47
2021/08/20 07:06:43;;;;;;;31.05;18.42;;;16.50;87.30;;;;;;5075854;28;20358;-49
2021/08/20 07:09:08;;;;;;;27.90;18.13;;;16.90;85.50;;;;;;5075566;28;20429;-47
2021/08/20 07:11:34;;;;;;;27.50;19.05;;;17.00;85.20;;;;;;5075488;28;20028;-46
2021/08/20 07:14:00;;;;;;;40.35;20.52;;;17.10;84.70;;;;;;5075345;28;20017;-47
2021/08/20 07:16:26;;;;;;;32.78;20.60;;;17.20;84.50;;;;;;5075113;28;20052;-51
2021/08/20 07:18:52;;;;;;;30.38;19.17;;;17.30;84.10;;;;;;5074292;28;20031;-47
2021/08/20 07:21:18;;;;;;;30.42;19.65;;;17.30;83.90;;;;;;5074954;28;20427;-46
2021/08/20 07:23:43;;;;;;;31.48;19.20;;;17.40;83.60;;;;;;5074140;28;20048;-48
2021/08/20 07:26:10;;;;;;;31.15;17.88;;;17.30;84.30;;;;;;5074949;28;20435;-49
2021/08/20 07:28:36;;;;;;;33.42;21.00;;;17.40;83.70;;;;;;5057430;28;20380;-47
2021/08/20 07:31:03;;;;;;;35.40;22.05;;;17.60;83.30;;;;;;5075065;28;20020;-49
2021/08/20 07:33:29;;;;;;;29.17;19.05;;;17.60;83.20;;;;;;5075582;28;20021;-46
2021/08/20 07:35:55;;;;;;;37.20;21.00;;;17.40;84.10;;;;;;5075077;28;20079;-47
2021/08/20 07:38:20;;;;;;;39.35;22.30;;;17.60;83.50;;;;;;5074870;28;20032;-51
2021/08/20 07:40:46;;;;;;;37.20;21.90;;;17.60;83.40;;;;;;5074919;28;20032;-47
2021/08/20 07:43:12;;;;;;;32.25;22.25;;;17.60;83.70;;;;;;5074798;28;20052;-46
2021/08/20 07:45:38;;;;;;;38.67;21.08;;;17.50;83.80;;;;;;5075367;28;20035;-47
2021/08/20 07:48:04;;;;;;;34.88;19.80;;;17.40;84.00;;;;;;5075534;28;20020;-45
2021/08/20 07:50:29;;;;;;;36.08;19.77;;;17.30;84.40;;;;;;5075777;28;20028;-46
2021/08/20 07:52:55;;;;;;;28.02;18.42;;;17.40;84.40;;;;;;5074530;28;20029;-50
2021/08/20 07:55:22;;;;;;;35.63;18.45;;;17.30;84.60;;;;;;5074385;28;20035;-47
2021/08/20 07:57:49;;;;;;;37.47;20.27;;;17.30;85.20;;;;;;5074806;28;20556;-48
2021/08/20 08:00:19;;;;;;;34.38;17.95;;;17.30;85.60;;;;;;5074782;28;20464;-51
2021/08/20 08:02:45;;;;;;;39.90;20.27;;;17.50;84.30;;;;;;5073675;28;20096;-48
2021/08/20 08:05:10;;;;;;;37.30;21.70;;;17.70;84.50;;;;;;5074071;28;20040;-46
2021/08/20 08:07:36;;;;;;;36.38;22.20;;;18.00;83.40;;;;;;5074411;28;20017;-48
2021/08/20 08:10:03;;;;;;;46.25;24.65;;;18.30;82.20;;;;;;5074452;28;20029;-48
2021/08/20 08:12:28;;;;;;;43.42;25.63;;;18.30;81.80;;;;;;5074368;28;20048;-47
2021/08/20 08:14:54;;;;;;;44.67;26.75;;;17.90;83.20;;;;;;5074182;28;20056;-49
2021/08/20 08:17:20;;;;;;;44.65;26.13;;;18.30;82.00;;;;;;5073867;28;20103;-47
2021/08/20 08:19:45;;;;;;;43.95;27.10;;;18.30;82.40;;;;;;5073968;28;20031;-50
2021/08/20 08:22:11;;;;;;;42.13;26.17;;;18.50;81.70;;;;;;5074264;28;20053;-48
2021/08/20 08:24:36;;;;;;;39.33;24.73;;;18.80;81.00;;;;;;5073956;28;20050;-47
2021/08/20 08:27:02;;;;;;;36.08;24.48;;;18.80;80.70;;;;;;5072917;28;20356;-47
2021/08/20 08:29:28;;;;;;;43.47;30.10;;;18.90;80.30;;;;;;5073975;28;20033;-49
2021/08/20 08:31:53;;;;;;;44.83;28.65;;;19.00;79.70;;;;;;5074090;28;20111;-47
2021/08/20 08:34:19;;;;;;;40.90;23.80;;;19.20;79.20;;;;;;5072875;28;20013;-48
2021/08/20 08:36:45;;;;;;;36.33;25.92;;;19.20;79.70;;;;;;5072845;28;20044;-45
2021/08/20 08:39:11;;;;;;;35.15;24.98;;;19.70;77.80;;;;;;5073499;28;20071;-49
2021/08/20 08:41:37;;;;;;;40.90;26.58;;;19.40;77.80;;;;;;5072744;28;20064;-46
2021/08/20 08:44:02;;;;;;;38.70;24.80;;;19.90;76.80;;;;;;5073296;28;20103;-47
2021/08/20 08:46:36;;;;;;;34.30;25.13;;;20.20;75.70;;;;;;5072631;28;20457;-46
2021/08/20 08:49:03;;;;;;;36.83;24.83;;;20.40;74.80;;;;;;5072699;28;20042;-49
2021/08/20 08:51:28;;;;;;;39.70;25.88;;;20.80;72.80;;;;;;5071317;28;20035;-49
2021/08/20 08:53:54;;;;;;;38.65;26.50;;;20.80;72.70;;;;;;5072876;28;20021;-47
2021/08/20 08:56:20;;;;;;;36.20;23.45;;;19.80;76.40;;;;;;5072924;28;20028;-47
2021/08/20 08:58:46;;;;;;;36.40;25.67;;;20.00;76.40;;;;;;5073176;28;20061;-47
2021/08/20 09:01:32;;;;;;;34.92;25.75;;;19.70;76.70;;;;;;5073307;28;20111;-49
2021/08/20 09:04:16;;;;;;;42.85;25.55;;;19.80;76.40;;;;;;5072434;28;20031;-47
2021/08/20 09:06:44;;;;;;;35.38;24.95;;;19.40;77.90;;;;;;5072056;28;20146;-49
2021/08/20 09:09:12;;;;;;;37.63;26.67;;;19.00;79.70;;;;;;5071590;28;20048;-48
2021/08/20 09:11:39;;;;;;;37.35;25.45;;;19.50;78.80;;;;;;5073353;28;20440;-48
2021/08/20 09:14:06;;;;;;;36.88;27.88;;;19.70;76.90;;;;;;5073067;28;20021;-46
2021/08/20 09:16:40;;;;;;;37.38;26.90;;;20.00;76.00;;;;;;5073071;28;20028;-48
2021/08/20 09:19:10;;;;;;;39.83;27.92;;;20.60;74.60;;;;;;5072956;28;20349;-48
2021/08/20 09:21:36;;;;;;;32.78;25.05;;;20.80;73.20;;;;;;5073059;28;20449;-47
2021/08/20 09:24:02;;;;;;;28.75;23.13;;;20.80;72.80;;;;;;5072351;28;20269;-48
2021/08/20 09:26:27;;;;;;;27.10;20.40;;;21.30;70.80;;;;;;5072371;28;20472;-48
2021/08/20 09:29:11;;;;;;;29.85;21.40;;;21.40;69.40;;;;;;5072082;28;20080;-48
2021/08/20 09:31:50;;;;;;;28.05;19.92;;;22.20;67.60;;;;;;5073027;28;20025;-47
2021/08/20 09:34:16;;;;;;;20.23;17.48;;;23.20;64.30;;;;;;5072701;28;20016;-49
2021/08/20 09:36:41;;;;;;;18.00;15.65;;;22.70;64.20;;;;;;5072694;28;20169;-46
2021/08/20 09:39:07;;;;;;;20.55;15.80;;;22.40;66.30;;;;;;5072629;28;20479;-47
2021/08/20 09:41:41;;;;;;;19.77;15.30;;;22.30;65.40;;;;;;5072641;28;20107;-48
2021/08/20 09:44:15;;;;;;;15.38;12.35;;;22.80;63.80;;;;;;5072334;28;20074;-48
2021/08/20 09:46:46;;;;;;;14.05;12.18;;;23.40;61.00;;;;;;5072803;28;20108;-49
2021/08/20 09:49:14;;;;;;;18.73;14.60;;;23.30;61.90;;;;;;5071285;28;20093;-47
2021/08/20 09:51:48;;;;;;;18.10;13.98;;;22.80;63.80;;;;;;5073430;28;20028;-47
2021/08/20 09:54:26;;;;;;;19.63;14.27;;;22.20;65.70;;;;;;5072860;28;20095;-48
2021/08/20 09:56:52;;;;;;;16.17;13.98;;;21.70;67.60;;;;;;5072384;28;20048;-47
2021/08/20 09:59:17;;;;;;;14.68;13.18;;;22.40;65.40;;;;;;5072148;28;20028;-48
2021/08/20 10:01:45;;;;;;;17.25;13.48;;;22.80;64.10;;;;;;5072259;28;20099;-52
2021/08/20 10:04:13;;;;;;;16.90;11.88;;;22.40;64.30;;;;;;5072334;28;20425;-48
2021/08/20 10:06:41;;;;;;;16.33;10.48;;;21.90;66.30;;;;;;5072735;28;20033;-48
2021/08/20 10:09:11;;;;;;;16.50;10.38;;;22.10;65.40;;;;;;5072321;28;20071;-49
2021/08/20 10:11:49;;;;;;;12.38;10.43;;;21.80;66.00;;;;;;5072334;28;20021;-48
2021/08/20 10:14:15;;;;;;;15.68;11.27;;;22.10;65.50;;;;;;5071297;28;20028;-47
2021/08/20 10:16:49;;;;;;;13.20;10.27;;;21.60;66.80;;;;;;5072850;28;20100;-49
2021/08/20 10:19:15;;;;;;;17.33;10.90;;;21.70;67.30;;;;;;5076048;28;20032;-49
2021/08/20 10:21:43;;;;;;;17.40;11.43;;;21.40;68.60;;;;;;5074566;28;20407;-47
2021/08/20 10:24:10;;;;;;;14.65;9.68;;;22.70;64.70;;;;;;5075445;28;20123;-49
2021/08/20 10:26:46;;;;;;;13.35;9.15;;;24.30;59.50;;;;;;5076527;28;20095;-48
2021/08/20 10:29:12;;;;;;;13.32;8.70;;;24.50;57.20;;;;;;5075709;28;20399;-50
2021/08/20 10:31:41;;;;;;;15.07;7.72;;;25.10;56.00;;;;;;5075558;28;20035;-47
2021/08/20 10:34:39;;;;;;;10.32;8.65;;;26.60;51.80;;;;;;5075570;28;20024;-48
2021/08/20 10:37:07;;;;;;;10.30;7.10;;;25.80;54.10;;;;;;5067423;28;20108;-48
2021/08/20 10:39:33;;;;;;;8.82;7.30;;;24.50;55.90;;;;;;5075928;28;20017;-49
2021/08/20 10:42:08;;;;;;;8.75;7.85;;;24.50;55.70;;;;;;5075626;28;20035;-48
2021/08/20 10:44:35;;;;;;;9.27;8.20;;;23.60;59.20;;;;;;5075800;28;20017;-48
2021/08/20 10:47:01;;;;;;;12.07;9.18;;;22.80;62.60;;;;;;5075302;28;20039;-52
2021/08/20 10:49:34;;;;;;;9.27;7.97;;;22.70;63.30;;;;;;5075140;28;20012;-46
2021/08/20 10:52:01;;;;;;;11.25;8.90;;;22.10;64.10;;;;;;5073526;28;20024;-48
2021/08/20 10:54:33;;;;;;;11.63;7.88;;;21.80;66.20;;;;;;5075504;28;20119;-48
2021/08/20 10:57:03;;;;;;;10.50;7.20;;;21.70;67.60;;;;;;5075591;28;20025;-47
2021/08/20 10:59:43;;;;;;;10.30;8.05;;;21.50;68.00;;;;;;5075068;28;20032;-50
2021/08/20 11:02:18;;;;;;;10.90;8.13;;;21.40;68.70;;;;;;5073933;28;20105;-50
2021/08/20 11:05:02;;;;;;;10.20;7.28;;;21.40;68.50;;;;;;5075231;28;20116;-51
2021/08/20 11:07:43;;;;;;;11.13;5.95;;;21.40;68.50;;;;;;5075374;28;20025;-47
2021/08/20 11:10:09;;;;;;;8.30;6.35;;;21.40;68.90;;;;;;5075356;28;20024;-48
2021/08/20 11:12:42;;;;;;;10.15;6.00;;;21.40;69.20;;;;;;5073870;28;20020;-47
2021/08/20 11:15:17;;;;;;;9.05;4.63;;;21.60;68.70;;;;;;5075933;28;20421;-47
2021/08/20 11:17:53;;;;;;;5.90;3.85;;;21.50;68.10;;;;;;5074993;28;20055;-48
2021/08/20 11:20:26;;;;;;;5.22;3.90;;;21.40;67.70;;;;;;5072917;28;20024;-50
2021/08/20 11:23:15;;;;;;;8.00;3.70;;;21.20;68.50;;;;;;5074787;28;20147;-49
2021/08/20 11:25:47;;;;;;;5.68;4.65;;;21.30;67.90;;;;;;5075240;28;20024;-47
2021/08/20 11:28:22;;;;;;;8.13;5.93;;;21.50;68.10;;;;;;5074542;28;20089;-48
2021/08/20 11:31:00;;;;;;;8.23;5.40;;;21.70;67.60;;;;;;5075029;28;20542;-47
2021/08/20 11:33:29;;;;;;;8.00;6.70;;;21.70;68.40;;;;;;5075073;28;20482;-51
2021/08/20 11:36:00;;;;;;;11.85;6.95;;;21.30;68.60;;;;;;5073708;28;20028;-47
2021/08/20 11:38:29;;;;;;;8.65;6.72;;;21.00;69.80;;;;;;5075366;28;20024;-48
2021/08/20 11:41:02;;;;;;;10.05;6.18;;;20.80;70.70;;;;;;5074952;28;20082;-47
2021/08/20 11:43:28;;;;;;;5.93;5.32;;;20.80;70.70;;;;;;5074809;28;20082;-49
2021/08/20 11:45:59;;;;;;;10.68;7.10;;;20.80;70.20;;;;;;5074821;28;20028;-47
2021/08/20 11:48:26;;;;;;;7.90;7.10;;;20.80;70.20;;;;;;5075177;28;20418;-50
2021/08/20 11:50:52;;;;;;;6.32;5.15;;;21.00;70.00;;;;;;5075001;28;20096;-51
2021/08/20 11:53:22;;;;;;;5.40;4.10;;;21.30;69.50;;;;;;5075006;28;20060;-54
2021/08/20 11:55:48;;;;;;;;;;;21.20;69.40;;;;;;5075461;28;20202;-51
2021/08/20 11:58:29;;;;;;;6.80;4.72;;;21.10;70.30;;;;;;5074577;28;19994;-49
2021/08/20 12:00:55;;;;;;;4.60;4.20;;;21.30;70.20;;;;;;5074460;28;20111;-49
2021/08/20 12:03:21;;;;;;;6.40;4.18;;;21.10;70.10;;;;;;5074700;28;20464;-50
2021/08/20 12:05:47;;;;;;;5.65;3.75;;;21.30;69.50;;;;;;5074279;28;20380;-52
2021/08/20 12:08:19;;;;;;;5.07;3.38;;;21.50;69.00;;;;;;5073205;28;20031;-52
2021/08/20 12:10:47;;;;;;;6.25;3.95;;;22.30;66.20;;;;;;5073114;28;20020;-51
2021/08/20 12:13:14;;;;;;;3.78;2.78;;;22.90;64.90;;;;;;5073257;28;20027;-47
2021/08/20 12:15:40;;;;;;;2.83;2.35;;;23.60;61.20;;;;;;5074379;28;20501;-49
2021/08/20 12:18:28;;;;;;;2.40;2.20;;;24.70;58.10;;;;;;5074121;28;20085;-49
2021/08/20 12:20:56;;;;;;;2.25;1.65;;;25.00;56.60;;;;;;5073739;28;20028;-48
2021/08/20 12:23:22;;;;;;;2.63;1.70;;;24.50;56.30;;;;;;5073925;28;20472;-49
2021/08/20 12:25:49;;;;;;;2.67;1.75;;;25.40;54.90;;;;;;5074018;28;20064;-49
2021/08/20 12:28:17;;;;;;;2.05;1.50;;;24.90;55.70;;;;;;5074218;28;20112;-49
2021/08/20 12:30:45;;;;;;;3.42;1.60;;;25.30;55.30;;;;;;5072628;28;20016;-50
2021/08/20 12:33:11;;;;;;;2.00;1.60;;;25.50;54.00;;;;;;5073846;28;20029;-47